createdAt,value
2022-11-12T00:00:14.183Z,0.00
2022-11-12T00:01:14.160Z,0.00
2022-11-12T00:02:14.207Z,0.00
2022-11-12T00:03:14.143Z,0.00
2022-11-12T00:04:14.135Z,0.00
2022-11-12T00:05:14.141Z,0.00
2022-11-12T00:06:14.117Z,0.00
2022-11-12T00:07:14.155Z,0.00
2022-11-12T00:08:14.092Z,0.00
2022-11-12T00:09:14.085Z,0.00
2022-11-12T00:10:14.084Z,0.00
2022-11-12T00:11:14.078Z,0.00
2022-11-12T00:12:14.066Z,0.00
2022-11-12T00:13:14.035Z,0.00
2022-11-12T00:14:14.025Z,0.00
2022-11-12T00:15:14.011Z,0.00
2022-11-12T00:16:14.017Z,0.00
2022-11-12T00:17:14.024Z,0.00
2022-11-12T00:18:13.979Z,0.00
2022-11-12T00:19:13.975Z,0.00
2022-11-12T00:20:13.964Z,0.00
2022-11-12T00:21:13.949Z,0.00
2022-11-12T00:22:13.945Z,0.00
2022-11-12T00:23:13.922Z,0.00
2022-11-12T00:24:13.919Z,0.00
2022-11-12T00:25:13.916Z,0.00
2022-11-12T00:26:13.893Z,0.00
2022-11-12T00:27:13.901Z,0.00
2022-11-12T00:28:13.888Z,0.00
2022-11-12T00:29:13.862Z,0.00
2022-11-12T00:30:13.855Z,0.00
2022-11-12T00:31:13.844Z,0.00
2022-11-12T00:32:13.829Z,0.00
2022-11-12T00:33:13.851Z,0.00
2022-11-12T00:34:13.811Z,0.00
2022-11-12T00:35:14.337Z,0.00
2022-11-12T00:36:13.785Z,0.00
2022-11-12T00:37:13.789Z,0.00
2022-11-12T00:38:13.758Z,0.00
2022-11-12T00:39:13.771Z,0.00
2022-11-12T00:40:13.743Z,0.00
2022-11-12T00:41:13.737Z,0.00
2022-11-12T00:42:13.711Z,0.00
2022-11-12T00:43:13.719Z,0.00
2022-11-12T00:44:13.709Z,0.00
2022-11-12T00:45:13.700Z,0.00
2022-11-12T00:46:13.672Z,0.00
2022-11-12T00:47:13.673Z,0.00
2022-11-12T00:48:13.650Z,0.00
2022-11-12T00:49:13.636Z,0.00
2022-11-12T00:50:13.636Z,0.00
2022-11-12T00:51:13.615Z,0.00
2022-11-12T00:52:13.605Z,0.00
2022-11-12T00:53:13.605Z,0.00
2022-11-12T00:54:13.589Z,0.00
2022-11-12T00:55:13.588Z,0.00
2022-11-12T00:56:13.582Z,0.00
2022-11-12T00:57:13.566Z,0.00
2022-11-12T00:58:13.583Z,0.00
2022-11-12T00:59:13.531Z,0.00
2022-11-12T01:00:13.526Z,0.00
2022-11-12T01:01:13.631Z,0.00
2022-11-12T01:02:13.503Z,0.00
2022-11-12T01:03:13.491Z,0.00
2022-11-12T01:04:13.492Z,0.00
2022-11-12T01:05:13.469Z,0.00
2022-11-12T01:06:13.467Z,0.00
2022-11-12T01:07:13.470Z,0.00
2022-11-12T01:08:13.427Z,0.00
2022-11-12T01:09:13.429Z,0.00
2022-11-12T01:10:13.417Z,0.00
2022-11-12T01:11:13.404Z,0.00
2022-11-12T01:12:13.400Z,0.00
2022-11-12T01:13:13.374Z,0.00
2022-11-12T01:14:13.361Z,0.00
2022-11-12T01:15:13.356Z,0.00
2022-11-12T01:16:13.343Z,0.00
2022-11-12T01:17:13.353Z,0.00
2022-11-12T01:18:13.360Z,0.00
2022-11-12T01:19:13.315Z,0.00
2022-11-12T01:20:13.296Z,0.00
2022-11-12T01:21:13.292Z,0.00
2022-11-12T01:22:13.290Z,0.00
2022-11-12T01:23:13.276Z,0.00
2022-11-12T01:24:13.253Z,0.00
2022-11-12T01:25:13.257Z,0.00
2022-11-12T01:26:13.241Z,0.00
2022-11-12T01:27:13.235Z,0.00
2022-11-12T01:28:13.220Z,0.00
2022-11-12T01:29:13.217Z,0.00
2022-11-12T01:30:13.187Z,0.00
2022-11-12T01:31:13.182Z,0.00
2022-11-12T01:32:13.161Z,0.00
2022-11-12T01:33:13.163Z,0.00
2022-11-12T01:34:13.160Z,0.00
2022-11-12T01:35:13.161Z,0.00
2022-11-12T01:36:13.120Z,0.00
2022-11-12T01:37:13.113Z,0.00
2022-11-12T01:38:13.101Z,0.00
2022-11-12T01:39:13.089Z,0.00
2022-11-12T01:40:13.097Z,0.00
2022-11-12T01:41:13.075Z,0.00
2022-11-12T01:42:13.067Z,0.00
2022-11-12T01:43:13.055Z,0.00
2022-11-12T01:44:13.030Z,0.00
2022-11-12T01:45:13.053Z,0.00
2022-11-12T01:46:13.027Z,0.00
2022-11-12T01:47:13.007Z,0.00
2022-11-12T01:48:13.002Z,0.00
2022-11-12T01:49:12.986Z,0.00
2022-11-12T01:50:13.164Z,0.00
2022-11-12T01:51:12.967Z,0.00
2022-11-12T01:52:12.956Z,0.00
2022-11-12T01:53:12.957Z,0.00
2022-11-12T01:54:12.938Z,0.00
2022-11-12T01:55:12.934Z,0.00
2022-11-12T01:56:12.935Z,0.00
2022-11-12T01:57:12.907Z,0.00
2022-11-12T01:58:12.890Z,0.00
2022-11-12T01:59:12.872Z,0.00
2022-11-12T02:00:12.860Z,0.00
2022-11-12T02:01:12.945Z,0.00
2022-11-12T02:02:12.868Z,0.00
2022-11-12T02:03:12.845Z,0.00
2022-11-12T02:04:12.820Z,0.00
2022-11-12T02:05:12.808Z,0.00
2022-11-12T02:06:12.791Z,0.00
2022-11-12T02:07:12.812Z,0.00
2022-11-12T02:08:12.779Z,0.00
2022-11-12T02:09:12.760Z,0.00
2022-11-12T02:10:12.750Z,0.00
2022-11-12T02:11:12.857Z,0.00
2022-11-12T02:12:12.729Z,0.00
2022-11-12T02:13:12.717Z,0.00
2022-11-12T02:14:12.714Z,0.00
2022-11-12T02:15:12.686Z,0.00
2022-11-12T02:16:12.678Z,0.00
2022-11-12T02:17:12.665Z,0.00
2022-11-12T02:18:12.654Z,0.00
2022-11-12T02:19:12.655Z,0.00
2022-11-12T02:20:12.641Z,0.00
2022-11-12T02:21:12.635Z,0.00
2022-11-12T02:22:12.619Z,0.00
2022-11-12T02:23:12.607Z,0.00
2022-11-12T02:24:12.647Z,0.00
2022-11-12T02:25:12.584Z,0.00
2022-11-12T02:26:12.562Z,0.00
2022-11-12T02:27:12.580Z,0.00
2022-11-12T02:28:12.546Z,0.00
2022-11-12T02:29:12.553Z,0.00
2022-11-12T02:30:12.546Z,0.00
2022-11-12T02:31:12.523Z,0.00
2022-11-12T02:32:12.499Z,0.00
2022-11-12T02:33:12.490Z,0.00
2022-11-12T02:34:12.482Z,0.00
2022-11-12T02:35:12.481Z,0.00
2022-11-12T02:36:12.459Z,0.00
2022-11-12T02:37:12.464Z,0.00
2022-11-12T02:38:12.458Z,0.00
2022-11-12T02:39:12.475Z,0.00
2022-11-12T02:40:12.438Z,0.00
2022-11-12T02:41:12.414Z,0.00
2022-11-12T02:42:12.387Z,0.00
2022-11-12T02:43:12.378Z,0.00
2022-11-12T02:44:12.365Z,0.00
2022-11-12T02:45:12.360Z,0.00
2022-11-12T02:46:15.637Z,0.00
2022-11-12T02:47:12.366Z,0.00
2022-11-12T02:48:17.968Z,0.00
2022-11-12T02:49:12.329Z,0.00
2022-11-12T02:50:12.303Z,0.00
2022-11-12T02:51:12.302Z,0.00
2022-11-12T02:52:12.298Z,0.00
2022-11-12T02:53:12.280Z,0.00
2022-11-12T02:54:12.259Z,0.00
2022-11-12T02:55:12.254Z,0.00
2022-11-12T02:56:12.235Z,0.00
2022-11-12T02:57:12.227Z,0.00
2022-11-12T02:58:12.225Z,0.00
2022-11-12T02:59:12.202Z,0.00
2022-11-12T03:00:12.197Z,0.00
2022-11-12T03:01:12.206Z,0.00
2022-11-12T03:02:12.166Z,0.00
2022-11-12T03:03:12.170Z,0.00
2022-11-12T03:04:12.204Z,0.00
2022-11-12T03:05:12.139Z,0.00
2022-11-12T03:06:12.123Z,0.00
2022-11-12T03:07:12.180Z,0.00
2022-11-12T03:08:12.102Z,0.00
2022-11-12T03:09:12.132Z,0.00
2022-11-12T03:10:12.080Z,0.00
2022-11-12T03:11:12.085Z,0.00
2022-11-12T03:12:12.065Z,0.00
2022-11-12T03:13:12.060Z,0.00
2022-11-12T03:14:12.046Z,0.00
2022-11-12T03:15:12.048Z,0.00
2022-11-12T03:16:12.019Z,0.00
2022-11-12T03:17:12.037Z,0.00
2022-11-12T03:18:11.999Z,0.00
2022-11-12T03:19:11.998Z,0.00
2022-11-12T03:20:12.002Z,0.00
2022-11-12T03:21:11.978Z,0.00
2022-11-12T03:22:11.956Z,0.00
2022-11-12T03:23:11.943Z,0.00
2022-11-12T03:24:11.939Z,0.00
2022-11-12T03:25:11.922Z,0.00
2022-11-12T03:26:11.913Z,0.00
2022-11-12T03:27:11.918Z,0.00
2022-11-12T03:28:11.887Z,0.00
2022-11-12T03:29:11.872Z,0.00
2022-11-12T03:30:11.896Z,0.00
2022-11-12T03:31:11.884Z,0.00
2022-11-12T03:32:11.847Z,0.00
2022-11-12T03:33:11.826Z,0.00
2022-11-12T03:34:11.832Z,0.00
2022-11-12T03:35:11.807Z,0.00
2022-11-12T03:36:11.822Z,0.00
2022-11-12T03:37:11.784Z,0.00
2022-11-12T03:38:11.793Z,0.00
2022-11-12T03:39:11.761Z,0.00
2022-11-12T03:40:11.757Z,0.00
2022-11-12T03:41:11.746Z,0.00
2022-11-12T03:42:11.745Z,0.00
2022-11-12T03:43:11.715Z,0.00
2022-11-12T03:44:11.713Z,0.00
2022-11-12T03:45:11.688Z,0.00
2022-11-12T03:46:11.685Z,0.00
2022-11-12T03:47:11.688Z,0.00
2022-11-12T03:48:11.682Z,0.00
2022-11-12T03:49:11.654Z,0.00
2022-11-12T03:50:11.645Z,0.00
2022-11-12T03:51:11.632Z,0.00
2022-11-12T03:52:11.622Z,0.00
2022-11-12T03:53:11.628Z,0.00
2022-11-12T03:54:11.591Z,0.00
2022-11-12T03:55:11.578Z,0.00
2022-11-12T03:56:11.574Z,0.00
2022-11-12T03:57:11.572Z,0.00
2022-11-12T03:58:11.554Z,0.00
2022-11-12T03:59:11.548Z,0.00
2022-11-12T04:00:11.534Z,0.00
2022-11-12T04:01:11.562Z,0.00
2022-11-12T04:02:11.505Z,0.00
2022-11-12T04:03:11.489Z,0.00
2022-11-12T04:04:11.499Z,0.00
2022-11-12T04:05:11.487Z,0.00
2022-11-12T04:06:11.472Z,0.00
2022-11-12T04:07:11.494Z,0.00
2022-11-12T04:08:11.438Z,0.00
2022-11-12T04:09:11.426Z,0.00
2022-11-12T04:10:11.423Z,0.00
2022-11-12T04:11:11.409Z,0.00
2022-11-12T04:12:11.395Z,0.00
2022-11-12T04:13:11.375Z,0.00
2022-11-12T04:14:11.375Z,0.00
2022-11-12T04:15:11.381Z,0.00
2022-11-12T04:16:11.351Z,0.00
2022-11-12T04:17:11.350Z,0.00
2022-11-12T04:18:11.339Z,0.00
2022-11-12T04:19:11.314Z,0.00
2022-11-12T04:20:11.313Z,0.00
2022-11-12T04:21:11.288Z,0.00
2022-11-12T04:22:11.322Z,0.00
2022-11-12T04:23:11.270Z,0.00
2022-11-12T04:24:11.267Z,0.00
2022-11-12T04:25:11.252Z,0.00
2022-11-12T04:26:11.245Z,0.00
2022-11-12T04:27:11.231Z,0.00
2022-11-12T04:28:11.235Z,0.00
2022-11-12T04:29:11.218Z,0.00
2022-11-12T04:30:11.199Z,0.00
2022-11-12T04:31:11.183Z,0.00
2022-11-12T04:32:11.184Z,0.00
2022-11-12T04:33:11.178Z,0.00
2022-11-12T04:34:11.163Z,0.00
2022-11-12T04:35:11.289Z,0.00
2022-11-12T04:36:11.138Z,0.00
2022-11-12T04:37:11.115Z,0.00
2022-11-12T04:38:11.121Z,0.00
2022-11-12T04:39:11.099Z,0.00
2022-11-12T04:40:11.111Z,0.00
2022-11-12T04:41:11.074Z,0.00
2022-11-12T04:42:11.063Z,0.00
2022-11-12T04:43:11.054Z,0.00
2022-11-12T04:44:11.056Z,0.00
2022-11-12T04:45:11.044Z,0.00
2022-11-12T04:46:11.028Z,0.00
2022-11-12T04:47:11.008Z,0.00
2022-11-12T04:48:11.005Z,0.00
2022-11-12T04:49:10.989Z,0.00
2022-11-12T04:50:10.996Z,0.00
2022-11-12T04:51:10.980Z,0.00
2022-11-12T04:52:10.968Z,0.00
2022-11-12T04:53:10.955Z,0.00
2022-11-12T04:54:10.938Z,0.00
2022-11-12T04:55:10.940Z,0.00
2022-11-12T04:56:10.932Z,0.00
2022-11-12T04:57:10.953Z,0.00
2022-11-12T04:58:10.901Z,0.00
2022-11-12T04:59:10.889Z,0.00
2022-11-12T05:00:10.876Z,0.00
2022-11-12T05:01:10.913Z,0.00
2022-11-12T05:02:10.858Z,0.00
2022-11-12T05:03:10.854Z,0.00
2022-11-12T05:04:10.843Z,0.00
2022-11-12T05:05:10.823Z,0.00
2022-11-12T05:06:10.808Z,0.00
2022-11-12T05:07:10.884Z,0.00
2022-11-12T05:08:10.803Z,0.00
2022-11-12T05:09:10.784Z,0.00
2022-11-12T05:10:10.772Z,0.00
2022-11-12T05:11:12.996Z,0.00
2022-11-12T05:12:10.749Z,0.00
2022-11-12T05:13:10.738Z,0.00
2022-11-12T05:14:10.747Z,0.00
2022-11-12T05:15:10.716Z,0.00
2022-11-12T05:16:10.713Z,0.00
2022-11-12T05:17:10.681Z,0.00
2022-11-12T05:18:10.685Z,0.00
2022-11-12T05:19:10.671Z,0.00
2022-11-12T05:20:10.708Z,0.00
2022-11-12T05:21:10.645Z,0.00
2022-11-12T05:22:21.856Z,0.00
2022-11-12T05:23:10.629Z,0.00
2022-11-12T05:24:22.482Z,0.00
2022-11-12T05:25:10.638Z,0.00
2022-11-12T05:26:10.594Z,0.00
2022-11-12T05:27:10.585Z,0.00
2022-11-12T05:28:10.583Z,0.00
2022-11-12T05:29:10.558Z,0.00
2022-11-12T05:30:10.553Z,0.00
2022-11-12T05:31:10.551Z,0.00
2022-11-12T05:32:10.523Z,0.00
2022-11-12T05:33:10.536Z,0.00
2022-11-12T05:34:10.519Z,0.00
2022-11-12T05:35:10.499Z,0.00
2022-11-12T05:36:10.495Z,0.00
2022-11-12T05:37:10.494Z,0.00
2022-11-12T05:38:10.470Z,0.00
2022-11-12T05:39:10.452Z,0.00
2022-11-12T05:40:10.453Z,0.00
2022-11-12T05:41:10.433Z,0.00
2022-11-12T05:42:13.464Z,0.00
2022-11-12T05:43:10.408Z,0.00
2022-11-12T05:44:10.398Z,0.00
2022-11-12T05:45:10.390Z,0.00
2022-11-12T05:46:10.386Z,0.00
2022-11-12T05:47:10.375Z,0.00
2022-11-12T05:48:10.379Z,0.00
2022-11-12T05:49:10.342Z,0.00
2022-11-12T05:50:10.335Z,0.00
2022-11-12T05:51:14.065Z,0.00
2022-11-12T05:52:10.324Z,0.00
2022-11-12T05:53:10.328Z,0.00
2022-11-12T05:54:10.287Z,0.00
2022-11-12T05:55:10.277Z,0.00
2022-11-12T05:56:10.268Z,0.00
2022-11-12T05:57:10.256Z,0.00
2022-11-12T05:58:10.253Z,0.00
2022-11-12T05:59:10.249Z,0.00
2022-11-12T06:00:10.228Z,0.00
2022-11-12T06:01:10.208Z,0.00
2022-11-12T06:02:10.316Z,0.00
2022-11-12T06:03:10.196Z,0.00
2022-11-12T06:04:10.208Z,0.00
2022-11-12T06:05:10.172Z,0.00
2022-11-12T06:06:10.161Z,0.00
2022-11-12T06:07:10.206Z,0.00
2022-11-12T06:08:10.152Z,0.00
2022-11-12T06:09:10.130Z,0.00
2022-11-12T06:10:10.124Z,0.00
2022-11-12T06:11:10.172Z,0.00
2022-11-12T06:12:10.088Z,0.00
2022-11-12T06:13:10.078Z,0.00
2022-11-12T06:14:10.072Z,0.00
2022-11-12T06:15:10.058Z,0.00
2022-11-12T06:16:10.040Z,0.00
2022-11-12T06:17:10.028Z,0.00
2022-11-12T06:18:10.030Z,0.00
2022-11-12T06:19:10.071Z,0.00
2022-11-12T06:20:10.001Z,0.00
2022-11-12T06:21:10.018Z,0.00
2022-11-12T06:22:09.985Z,0.00
2022-11-12T06:23:09.968Z,0.00
2022-11-12T06:24:09.959Z,0.00
2022-11-12T06:25:09.940Z,0.00
2022-11-12T06:26:09.934Z,0.00
2022-11-12T06:27:09.932Z,0.00
2022-11-12T06:28:09.937Z,0.00
2022-11-12T06:29:09.897Z,0.00
2022-11-12T06:30:09.895Z,0.00
2022-11-12T06:31:09.877Z,0.00
2022-11-12T06:32:09.878Z,0.00
2022-11-12T06:33:09.877Z,0.00
2022-11-12T06:34:09.854Z,0.00
2022-11-12T06:35:09.835Z,0.00
2022-11-12T06:36:09.843Z,0.00
2022-11-12T06:37:09.813Z,0.00
2022-11-12T06:38:09.816Z,0.00
2022-11-12T06:39:09.786Z,0.00
2022-11-12T06:40:09.779Z,0.00
2022-11-12T06:41:09.767Z,0.00
2022-11-12T06:42:09.757Z,0.00
2022-11-12T06:43:09.750Z,0.00
2022-11-12T06:44:09.743Z,0.00
2022-11-12T06:45:09.721Z,0.00
2022-11-12T06:46:09.714Z,5.62
2022-11-12T06:47:09.704Z,5.62
2022-11-12T06:48:09.692Z,5.62
2022-11-12T06:49:09.688Z,5.62
2022-11-12T06:50:09.668Z,5.62
2022-11-12T06:51:09.668Z,5.62
2022-11-12T06:52:15.169Z,5.62
2022-11-12T06:53:09.635Z,5.62
2022-11-12T06:54:09.646Z,5.62
2022-11-12T06:55:09.614Z,5.62
2022-11-12T06:56:09.607Z,5.62
2022-11-12T06:57:09.589Z,5.62
2022-11-12T06:58:09.612Z,5.62
2022-11-12T06:59:09.573Z,5.62
2022-11-12T07:00:09.592Z,5.62
2022-11-12T07:01:11.935Z,5.62
2022-11-12T07:02:09.592Z,5.62
2022-11-12T07:03:09.524Z,5.62
2022-11-12T07:04:09.550Z,5.62
2022-11-12T07:05:09.513Z,5.62
2022-11-12T07:06:09.497Z,11.25
2022-11-12T07:07:11.037Z,11.25
2022-11-12T07:08:09.474Z,11.25
2022-11-12T07:09:09.458Z,11.25
2022-11-12T07:10:09.460Z,11.25
2022-11-12T07:11:09.458Z,11.25
2022-11-12T07:12:09.440Z,11.25
2022-11-12T07:13:09.410Z,11.25
2022-11-12T07:14:09.406Z,11.25
2022-11-12T07:15:09.394Z,11.25
2022-11-12T07:16:09.408Z,11.25
2022-11-12T07:17:09.361Z,11.25
2022-11-12T07:18:09.359Z,11.25
2022-11-12T07:19:09.349Z,11.25
2022-11-12T07:20:09.332Z,11.25
2022-11-12T07:21:09.326Z,11.25
2022-11-12T07:22:09.331Z,11.25
2022-11-12T07:23:09.294Z,11.25
2022-11-12T07:24:09.325Z,11.25
2022-11-12T07:25:09.278Z,16.88
2022-11-12T07:26:09.263Z,16.88
2022-11-12T07:27:09.263Z,16.88
2022-11-12T07:28:09.255Z,11.25
2022-11-12T07:29:09.271Z,11.25
2022-11-12T07:30:09.225Z,11.25
2022-11-12T07:31:09.210Z,11.25
2022-11-12T07:32:09.214Z,11.25
2022-11-12T07:33:09.214Z,16.88
2022-11-12T07:34:09.181Z,16.88
2022-11-12T07:35:09.172Z,16.88
2022-11-12T07:36:09.150Z,16.88
2022-11-12T07:37:09.154Z,16.88
2022-11-12T07:38:09.135Z,16.88
2022-11-12T07:39:09.214Z,16.88
2022-11-12T07:40:09.123Z,16.88
2022-11-12T07:41:09.106Z,16.88
2022-11-12T07:42:09.104Z,16.88
2022-11-12T07:43:09.088Z,16.88
2022-11-12T07:44:09.084Z,16.88
2022-11-12T07:45:09.076Z,16.88
2022-11-12T07:46:10.837Z,16.88
2022-11-12T07:47:09.048Z,16.88
2022-11-12T07:48:09.025Z,16.88
2022-11-12T07:49:09.016Z,16.88
2022-11-12T07:50:09.021Z,16.88
2022-11-12T07:51:08.998Z,16.88
2022-11-12T07:52:08.982Z,16.88
2022-11-12T07:53:08.979Z,16.88
2022-11-12T07:54:08.968Z,16.88
2022-11-12T07:55:08.972Z,16.88
2022-11-12T07:56:08.948Z,16.88
2022-11-12T07:57:08.931Z,16.88
2022-11-12T07:58:08.919Z,16.88
2022-11-12T07:59:08.911Z,16.88
2022-11-12T08:00:08.896Z,16.88
2022-11-12T08:01:09.013Z,16.88
2022-11-12T08:02:08.888Z,16.88
2022-11-12T08:03:08.866Z,16.88
2022-11-12T08:04:08.852Z,22.50
2022-11-12T08:05:15.439Z,22.50
2022-11-12T08:06:08.835Z,22.50
2022-11-12T08:07:08.985Z,22.50
2022-11-12T08:08:08.878Z,22.50
2022-11-12T08:09:08.819Z,22.50
2022-11-12T08:10:08.796Z,22.50
2022-11-12T08:11:08.804Z,22.50
2022-11-12T08:12:08.780Z,22.50
2022-11-12T08:13:08.766Z,22.50
2022-11-12T08:14:08.741Z,22.50
2022-11-12T08:15:08.743Z,22.50
2022-11-12T08:16:08.719Z,22.50
2022-11-12T08:17:08.723Z,22.50
2022-11-12T08:18:08.716Z,22.50
2022-11-12T08:19:08.704Z,22.50
2022-11-12T08:20:08.678Z,22.50
2022-11-12T08:21:08.695Z,22.50
2022-11-12T08:22:08.658Z,22.50
2022-11-12T08:23:08.666Z,22.50
2022-11-12T08:24:08.660Z,22.50
2022-11-12T08:25:08.645Z,22.50
2022-11-12T08:26:08.614Z,22.50
2022-11-12T08:27:08.603Z,22.50
2022-11-12T08:28:08.596Z,22.50
2022-11-12T08:29:09.157Z,22.50
2022-11-12T08:30:08.575Z,22.50
2022-11-12T08:31:08.564Z,22.50
2022-11-12T08:32:08.553Z,22.50
2022-11-12T08:33:08.540Z,22.50
2022-11-12T08:34:08.525Z,22.50
2022-11-12T08:35:08.554Z,22.50
2022-11-12T08:36:08.514Z,22.50
2022-11-12T08:37:08.499Z,22.50
2022-11-12T08:38:08.491Z,22.50
2022-11-12T08:39:08.611Z,22.50
2022-11-12T08:40:08.610Z,22.50
2022-11-12T08:41:08.449Z,28.12
2022-11-12T08:42:08.428Z,28.12
2022-11-12T08:43:08.425Z,28.12
2022-11-12T08:44:08.987Z,28.12
2022-11-12T08:45:08.419Z,28.12
2022-11-12T08:46:08.400Z,28.12
2022-11-12T08:47:08.382Z,28.12
2022-11-12T08:48:08.369Z,28.12
2022-11-12T08:49:08.382Z,28.12
2022-11-12T08:50:08.474Z,28.12
2022-11-12T08:51:08.359Z,28.12
2022-11-12T08:52:08.335Z,28.12
2022-11-12T08:53:08.312Z,28.12
2022-11-12T08:54:08.323Z,28.12
2022-11-12T08:55:08.304Z,28.12
2022-11-12T08:56:08.275Z,28.12
2022-11-12T08:57:08.289Z,28.12
2022-11-12T08:58:08.311Z,28.12
2022-11-12T08:59:08.297Z,28.12
2022-11-12T09:00:08.281Z,28.12
2022-11-12T09:01:08.352Z,28.12
2022-11-12T09:02:08.228Z,28.12
2022-11-12T09:03:08.205Z,28.12
2022-11-12T09:04:08.195Z,28.12
2022-11-12T09:05:08.185Z,28.12
2022-11-12T09:06:08.171Z,28.12
2022-11-12T09:07:09.672Z,28.12
2022-11-12T09:08:08.218Z,28.12
2022-11-12T09:09:08.137Z,28.12
2022-11-12T09:10:08.119Z,28.12
2022-11-12T09:11:08.112Z,28.12
2022-11-12T09:12:15.070Z,28.12
2022-11-12T09:13:08.115Z,28.12
2022-11-12T09:14:08.258Z,28.12
2022-11-12T09:15:37.083Z,28.12
2022-11-12T09:16:08.063Z,28.12
2022-11-12T09:17:08.070Z,28.12
2022-11-12T09:18:08.046Z,28.12
2022-11-12T09:19:08.050Z,28.12
2022-11-12T09:20:08.028Z,28.12
2022-11-12T09:21:08.007Z,33.75
2022-11-12T09:22:07.996Z,33.75
2022-11-12T09:23:07.994Z,28.12
2022-11-12T09:24:07.979Z,28.12
2022-11-12T09:25:07.985Z,28.12
2022-11-12T09:26:07.952Z,33.75
2022-11-12T09:27:07.947Z,33.75
2022-11-12T09:28:07.921Z,33.75
2022-11-12T09:29:07.919Z,33.75
2022-11-12T09:30:07.964Z,33.75
2022-11-12T09:31:07.902Z,33.75
2022-11-12T09:32:07.882Z,33.75
2022-11-12T09:33:07.891Z,39.38
2022-11-12T09:34:07.880Z,39.38
2022-11-12T09:35:07.880Z,39.38
2022-11-12T09:36:07.831Z,39.38
2022-11-12T09:37:07.837Z,39.38
2022-11-12T09:38:07.815Z,39.38
2022-11-12T09:39:07.843Z,39.38
2022-11-12T09:40:07.793Z,39.38
2022-11-12T09:41:07.841Z,45.00
2022-11-12T09:42:07.767Z,45.00
2022-11-12T09:43:07.772Z,45.00
2022-11-12T09:44:07.751Z,45.00
2022-11-12T09:45:07.748Z,45.00
2022-11-12T09:46:26.815Z,45.00
2022-11-12T09:47:07.765Z,45.00
2022-11-12T09:48:07.710Z,50.62
2022-11-12T09:49:07.730Z,50.62
2022-11-12T09:50:07.693Z,50.62
2022-11-12T09:51:07.683Z,50.62
2022-11-12T09:52:07.700Z,50.62
2022-11-12T09:53:07.700Z,50.62
2022-11-12T09:54:07.658Z,50.62
2022-11-12T09:55:07.645Z,50.62
2022-11-12T09:56:07.614Z,56.25
2022-11-12T09:57:07.622Z,56.25
2022-11-12T09:58:07.630Z,56.25
2022-11-12T09:59:07.620Z,56.25
2022-11-12T10:00:07.572Z,61.88
2022-11-12T10:01:07.560Z,61.88
2022-11-12T10:02:07.553Z,61.88
2022-11-12T10:03:07.580Z,61.88
2022-11-12T10:04:07.565Z,61.88
2022-11-12T10:05:07.561Z,56.25
2022-11-12T10:06:10.659Z,56.25
2022-11-12T10:07:07.532Z,56.25
2022-11-12T10:08:07.491Z,56.25
2022-11-12T10:09:07.497Z,56.25
2022-11-12T10:10:07.479Z,56.25
2022-11-12T10:11:07.455Z,56.25
2022-11-12T10:12:07.440Z,56.25
2022-11-12T10:13:07.434Z,56.25
2022-11-12T10:14:07.422Z,56.25
2022-11-12T10:15:07.442Z,56.25
2022-11-12T10:16:07.398Z,56.25
2022-11-12T10:17:07.418Z,56.25
2022-11-12T10:18:07.372Z,56.25
2022-11-12T10:19:07.413Z,56.25
2022-11-12T10:20:07.369Z,56.25
2022-11-12T10:21:07.354Z,56.25
2022-11-12T10:22:07.339Z,56.25
2022-11-12T10:23:07.335Z,56.25
2022-11-12T10:24:07.307Z,56.25
2022-11-12T10:25:07.315Z,56.25
2022-11-12T10:26:07.318Z,56.25
2022-11-12T10:27:07.295Z,56.25
2022-11-12T10:28:07.267Z,56.25
2022-11-12T10:29:07.261Z,56.25
2022-11-12T10:30:07.252Z,56.25
2022-11-12T10:31:07.243Z,56.25
2022-11-12T10:32:07.247Z,61.88
2022-11-12T10:33:07.228Z,61.88
2022-11-12T10:34:07.195Z,61.88
2022-11-12T10:35:07.195Z,67.50
2022-11-12T10:36:07.178Z,67.50
2022-11-12T10:37:07.178Z,73.12
2022-11-12T10:38:07.174Z,73.12
2022-11-12T10:39:07.164Z,73.12
2022-11-12T10:40:07.138Z,78.75
2022-11-12T10:41:10.738Z,90.00
2022-11-12T10:42:07.116Z,84.38
2022-11-12T10:43:07.117Z,78.75
2022-11-12T10:44:07.097Z,84.38
2022-11-12T10:45:07.097Z,90.00
2022-11-12T10:46:07.072Z,95.62
2022-11-12T10:47:07.077Z,95.62
2022-11-12T10:48:07.045Z,101.25
2022-11-12T10:49:07.033Z,106.88
2022-11-12T10:50:07.035Z,118.12
2022-11-12T10:51:07.013Z,118.12
2022-11-12T10:52:07.000Z,123.75
2022-11-12T10:53:06.996Z,112.50
2022-11-12T10:54:06.985Z,101.25
2022-11-12T10:55:06.990Z,95.62
2022-11-12T10:56:06.959Z,101.25
2022-11-12T10:57:06.949Z,95.62
2022-11-12T10:58:06.935Z,84.38
2022-11-12T10:59:06.978Z,84.38
2022-11-12T11:00:07.039Z,90.00
2022-11-12T11:01:06.924Z,95.62
2022-11-12T11:02:06.991Z,95.62
2022-11-12T11:03:06.879Z,129.38
2022-11-12T11:04:06.864Z,123.75
2022-11-12T11:05:06.857Z,112.50
2022-11-12T11:06:06.856Z,118.12
2022-11-12T11:07:06.944Z,118.12
2022-11-12T11:08:06.821Z,101.25
2022-11-12T11:09:06.815Z,95.62
2022-11-12T11:10:06.805Z,106.88
2022-11-12T11:11:06.798Z,118.12
2022-11-12T11:12:06.791Z,129.38
2022-11-12T11:13:06.781Z,129.38
2022-11-12T11:14:06.769Z,106.88
2022-11-12T11:15:06.761Z,101.25
2022-11-12T11:16:06.735Z,101.25
2022-11-12T11:17:06.736Z,101.25
2022-11-12T11:18:06.737Z,101.25
2022-11-12T11:19:06.704Z,101.25
2022-11-12T11:20:06.695Z,101.25
2022-11-12T11:21:06.687Z,101.25
2022-11-12T11:22:06.683Z,101.25
2022-11-12T11:23:06.676Z,95.62
2022-11-12T11:24:06.660Z,101.25
2022-11-12T11:25:06.646Z,90.00
2022-11-12T11:26:06.624Z,90.00
2022-11-12T11:27:06.616Z,84.38
2022-11-12T11:28:06.610Z,84.38
2022-11-12T11:29:06.619Z,84.38
2022-11-12T11:30:06.593Z,90.00
2022-11-12T11:31:06.594Z,95.62
2022-11-12T11:32:06.569Z,95.62
2022-11-12T11:33:06.555Z,84.38
2022-11-12T11:34:06.532Z,84.38
2022-11-12T11:35:06.549Z,78.75
2022-11-12T11:36:06.514Z,78.75
2022-11-12T11:37:06.506Z,84.38
2022-11-12T11:38:06.502Z,73.12
2022-11-12T11:39:06.489Z,78.75
2022-11-12T11:40:06.488Z,78.75
2022-11-12T11:41:06.462Z,78.75
2022-11-12T11:42:06.453Z,78.75
2022-11-12T11:43:06.437Z,84.38
2022-11-12T11:44:11.182Z,73.12
2022-11-12T11:45:06.444Z,73.12
2022-11-12T11:46:06.422Z,78.75
2022-11-12T11:47:06.392Z,73.12
2022-11-12T11:48:06.383Z,73.12
2022-11-12T11:49:06.378Z,67.50
2022-11-12T11:50:06.361Z,61.88
2022-11-12T11:51:06.371Z,61.88
2022-11-12T11:52:06.334Z,61.88
2022-11-12T11:53:06.321Z,67.50
2022-11-12T11:54:06.390Z,67.50
2022-11-12T11:55:06.302Z,73.12
2022-11-12T11:56:06.311Z,84.38
2022-11-12T11:57:06.288Z,90.00
2022-11-12T11:58:06.294Z,84.38
2022-11-12T11:59:06.333Z,84.38
2022-11-12T12:00:06.253Z,95.62
2022-11-12T12:01:06.244Z,101.25
2022-11-12T12:02:06.230Z,101.25
2022-11-12T12:03:06.308Z,101.25
2022-11-12T12:04:06.361Z,101.25
2022-11-12T12:05:06.194Z,95.62
2022-11-12T12:06:06.185Z,101.25
2022-11-12T12:07:06.262Z,101.25
2022-11-12T12:08:06.172Z,95.62
2022-11-12T12:09:06.224Z,95.62
2022-11-12T12:10:09.298Z,95.62
2022-11-12T12:11:08.942Z,90.00
2022-11-12T12:12:06.124Z,101.25
2022-11-12T12:13:06.104Z,101.25
2022-11-12T12:14:06.130Z,101.25
2022-11-12T12:15:06.080Z,118.12
2022-11-12T12:16:06.220Z,123.75
2022-11-12T12:17:06.061Z,123.75
2022-11-12T12:18:06.057Z,123.75
2022-11-12T12:19:06.069Z,118.12
2022-11-12T12:20:06.048Z,106.88
2022-11-12T12:21:06.008Z,106.88
2022-11-12T12:22:06.012Z,106.88
2022-11-12T12:23:06.008Z,106.88
2022-11-12T12:24:06.070Z,106.88
2022-11-12T12:25:05.983Z,101.25
2022-11-12T12:26:05.968Z,95.62
2022-11-12T12:27:05.943Z,95.62
2022-11-12T12:28:05.945Z,95.62
2022-11-12T12:29:05.928Z,95.62
2022-11-12T12:30:05.940Z,101.25
2022-11-12T12:31:05.905Z,101.25
2022-11-12T12:32:05.906Z,101.25
2022-11-12T12:33:05.884Z,101.25
2022-11-12T12:34:05.886Z,101.25
2022-11-12T12:35:05.863Z,101.25
2022-11-12T12:36:05.937Z,95.62
2022-11-12T12:37:06.018Z,95.62
2022-11-12T12:38:05.908Z,95.62
2022-11-12T12:39:05.880Z,95.62
2022-11-12T12:40:05.819Z,90.00
2022-11-12T12:41:05.812Z,90.00
2022-11-12T12:42:05.822Z,90.00
2022-11-12T12:43:05.828Z,78.75
2022-11-12T12:44:05.894Z,73.12
2022-11-12T12:45:05.774Z,73.12
2022-11-12T12:46:05.752Z,61.88
2022-11-12T12:47:05.753Z,61.88
2022-11-12T12:48:05.725Z,61.88
2022-11-12T12:49:05.754Z,56.25
2022-11-12T12:50:05.718Z,56.25
2022-11-12T12:51:05.680Z,56.25
2022-11-12T12:52:05.677Z,56.25
2022-11-12T12:53:05.690Z,50.62
2022-11-12T12:54:05.653Z,56.25
2022-11-12T12:55:05.651Z,56.25
2022-11-12T12:56:05.638Z,56.25
2022-11-12T12:57:05.613Z,56.25
2022-11-12T12:58:05.613Z,56.25
2022-11-12T12:59:05.595Z,50.62
2022-11-12T13:00:05.713Z,50.62
2022-11-12T13:01:05.609Z,50.62
2022-11-12T13:02:05.558Z,50.62
2022-11-12T13:03:05.545Z,56.25
2022-11-12T13:04:05.553Z,56.25